Time;durP1;ratioP1;P1;durP2;ratioP2;P2;SDS_P1;SDS_P2;PMS_P1;PMS_P2;Temp;Humidity;BMP_temperature;BMP_pressure;BME280_temperature;BME280_humidity;BME280_pressure;Samples;Min_cycle;Max_cycle;Signal;HPM_P1;HPM_P2
2022/04/08 00:00:16;;;;;;;;;;;6.10;94.60;;;;;;2106805;28;20339;-92
2022/04/08 00:01:35;;;;;;;;;;;6.10;94.60;;;;;;2103417;28;20006;-92
2022/04/08 00:02:55;;;;;;;;;;;6.10;94.70;;;;;;2089575;28;20378;-93
2022/04/08 00:04:14;;;;;;;;;;;6.10;94.60;;;;;;2089127;28;19920;-92
2022/04/08 00:05:33;;;;;;;;;;;6.10;94.60;;;;;;2083556;28;19917;-91
2022/04/08 00:06:53;;;;;;;;;;;6.10;94.70;;;;;;2084033;28;20367;-93
2022/04/08 00:08:12;;;;;;;;;;;6.10;94.60;;;;;;2083150;28;19916;-92
2022/04/08 00:09:31;;;;;;;;;;;6.10;94.60;;;;;;2097111;28;19916;-91
2022/04/08 00:10:51;;;;;;;;;;;6.10;94.70;;;;;;2100381;28;19948;-92
2022/04/08 00:12:10;;;;;;;;;;;6.10;94.60;;;;;;2101767;28;19946;-93
2022/04/08 00:13:29;;;;;;;;;;;6.10;94.60;;;;;;2097314;28;19948;-92
2022/04/08 00:14:48;;;;;;;;;;;6.10;94.60;;;;;;2091837;28;19913;-93
2022/04/08 00:16:08;;;;;;;;;;;6.10;94.60;;;;;;2088225;28;19972;-93
2022/04/08 00:17:27;;;;;;;;;;;6.10;94.60;;;;;;2097179;28;19909;-92
2022/04/08 00:18:46;;;;;;;;;;;6.10;94.60;;;;;;2092051;28;19917;-91
2022/04/08 00:20:06;;;;;;;;;;;6.10;94.60;;;;;;2104454;28;19916;-91
2022/04/08 00:21:25;;;;;;;;;;;6.10;94.60;;;;;;2099369;28;19917;-93
2022/04/08 00:22:45;;;;;;;;;;;6.10;94.60;;;;;;2092109;28;20007;-93
2022/04/08 00:24:05;;;;;;;;;;;6.10;94.60;;;;;;2092280;28;19929;-92
2022/04/08 00:25:24;;;;;;;;;;;6.10;94.60;;;;;;2091241;28;19920;-93
2022/04/08 00:26:45;;;;;;;;;;;6.10;94.60;;;;;;2097252;28;19987;-92
2022/04/08 00:28:04;;;;;;;;;;;6.10;94.50;;;;;;2095954;28;19916;-92
2022/04/08 00:29:24;;;;;;;;;;;6.10;94.50;;;;;;2100606;28;19917;-92
2022/04/08 00:30:43;;;;;;;;;;;6.10;94.50;;;;;;2106068;28;19908;-92
2022/04/08 00:32:02;;;;;;;;;;;6.10;94.50;;;;;;2084878;28;19917;-92
2022/04/08 00:33:21;;;;;;;;;;;6.10;94.50;;;;;;2093783;28;19912;-91
2022/04/08 00:34:41;;;;;;;;;;;6.10;94.50;;;;;;2097031;28;20306;-92
2022/04/08 00:36:00;;;;;;;;;;;6.10;94.50;;;;;;2084844;28;19925;-90
2022/04/08 00:37:19;;;;;;;;;;;6.10;94.60;;;;;;2086661;28;19917;-92
2022/04/08 00:38:39;;;;;;;;;;;6.10;94.60;;;;;;2094569;28;19921;-93
2022/04/08 00:39:58;;;;;;;;;;;6.10;94.60;;;;;;2099965;28;19924;-92
2022/04/08 00:41:17;;;;;;;;;;;6.00;94.50;;;;;;2095563;28;19913;-92
2022/04/08 00:42:37;;;;;;;;;;;6.10;94.50;;;;;;2096336;28;19916;-90
2022/04/08 00:43:56;;;;;;;;;;;6.10;94.60;;;;;;2095472;28;19917;-92
2022/04/08 00:45:16;;;;;;;;;;;6.00;94.50;;;;;;2092876;28;19920;-92
2022/04/08 00:46:37;;;;;;;;;;;6.00;94.50;;;;;;2098923;28;19921;-91
2022/04/08 00:47:57;;;;;;;;;;;6.00;94.60;;;;;;2097940;28;19909;-93
2022/04/08 00:49:16;;;;;;;;;;;6.00;94.50;;;;;;2091927;28;19921;-92
2022/04/08 00:50:37;;;;;;;;;;;6.00;94.50;;;;;;2092985;28;19916;-92
2022/04/08 00:51:56;;;;;;;;;;;6.00;94.60;;;;;;2093015;28;19916;-92
2022/04/08 00:53:15;;;;;;;;;;;6.00;94.60;;;;;;2092389;28;19921;-92
2022/04/08 00:54:34;;;;;;;;;;;6.00;94.60;;;;;;2091797;28;19929;-92
2022/04/08 00:55:54;;;;;;;;;;;6.00;94.50;;;;;;2097715;28;19917;-91
2022/04/08 00:57:13;;;;;;;;;;;6.00;94.60;;;;;;2095380;28;19917;-91
2022/04/08 00:58:34;;;;;;;;;;;6.00;94.50;;;;;;2088610;28;19913;-90
2022/04/08 00:59:54;;;;;;;;;;;6.00;94.50;;;;;;2092096;28;19924;-93
2022/04/08 01:01:13;;;;;;;;;;;6.00;94.50;;;;;;2103829;28;19909;-91
2022/04/08 01:02:32;;;;;;;;;;;6.00;94.50;;;;;;2098174;28;19924;-92
2022/04/08 01:03:52;;;;;;;;;;;6.00;94.50;;;;;;2094829;28;19917;-92
2022/04/08 01:05:11;;;;;;;;;;;6.00;94.50;;;;;;2096036;28;19968;-92
2022/04/08 01:06:30;;;;;;;;;;;6.00;94.40;;;;;;2091570;28;19909;-92
2022/04/08 01:07:49;;;;;;;;;;;6.00;94.40;;;;;;2092086;28;19917;-93
2022/04/08 01:09:10;;;;;;;;;;;6.00;94.40;;;;;;2091485;28;19917;-92
2022/04/08 01:10:29;;;;;;;;;;;6.00;94.40;;;;;;2099720;28;19913;-92
2022/04/08 01:11:49;;;;;;;;;;;6.00;94.40;;;;;;2099512;28;20405;-92
2022/04/08 01:13:08;;;;;;;;;;;6.00;94.30;;;;;;2090879;28;20386;-92
2022/04/08 01:14:27;;;;;;;;;;;6.00;94.30;;;;;;2100184;28;20375;-92
2022/04/08 01:15:47;;;;;;;;;;;6.00;94.30;;;;;;2092114;28;19912;-92
2022/04/08 01:17:06;;;;;;;;;;;6.00;94.30;;;;;;2092472;28;20347;-92
2022/04/08 01:18:25;;;;;;;;;;;5.90;94.30;;;;;;2094899;28;19956;-92
2022/04/08 01:19:44;;;;;;;;;;;5.90;94.30;;;;;;2087680;28;20362;-92
2022/04/08 01:21:05;;;;;;;;;;;5.90;94.30;;;;;;2093141;28;19913;-91
2022/04/08 01:22:23;;;;;;;;;;;5.90;94.30;;;;;;2088442;28;20282;-92
2022/04/08 01:23:46;;;;;;;;;;;5.90;94.30;;;;;;2089865;28;19924;-93
2022/04/08 01:25:06;;;;;;;;;;;5.90;94.30;;;;;;2091826;28;19944;-92
2022/04/08 01:26:25;;;;;;;;;;;5.80;94.30;;;;;;2088347;28;19909;-92
2022/04/08 01:27:44;;;;;;;;;;;5.80;94.30;;;;;;2094741;28;20003;-91
2022/04/08 01:29:04;;;;;;;;;;;5.80;94.30;;;;;;2088003;28;20379;-92
2022/04/08 01:30:23;;;;;;;;;;;5.80;94.30;;;;;;2093185;28;19913;-92
2022/04/08 01:31:45;;;;;;;;;;;5.70;94.30;;;;;;2086266;28;19913;-92
2022/04/08 01:33:04;;;;;;;;;;;5.70;94.40;;;;;;2085539;28;19917;-92
2022/04/08 01:34:23;;;;;;;;;;;5.70;94.40;;;;;;2086980;28;19960;-92
2022/04/08 01:35:42;;;;;;;;;;;5.70;94.40;;;;;;2083779;28;20290;-92
2022/04/08 01:37:01;;;;;;;;;;;5.60;94.40;;;;;;2087844;28;20347;-92
2022/04/08 01:38:20;;;;;;;;;;;5.60;94.40;;;;;;2076747;28;19953;-92
2022/04/08 01:39:41;;;;;;;;;;;5.60;94.40;;;;;;2088154;28;20379;-92
2022/04/08 01:41:00;;;;;;;;;;;5.60;94.40;;;;;;2091732;28;20418;-92
2022/04/08 01:42:24;;;;;;;;;;;5.50;94.40;;;;;;2094778;28;19921;-92
2022/04/08 01:43:44;;;;;;;;;;;5.60;94.40;;;;;;2088624;28;20371;-92
2022/04/08 01:45:03;;;;;;;;;;;5.50;94.40;;;;;;2088786;28;19912;-93
2022/04/08 01:46:22;;;;;;;;;;;5.50;94.40;;;;;;2091699;28;19952;-92
2022/04/08 01:47:41;;;;;;;;;;;5.50;94.40;;;;;;2092458;28;20371;-92
2022/04/08 01:49:01;;;;;;;;;;;5.50;94.40;;;;;;2096039;28;19948;-93
2022/04/08 01:50:21;;;;;;;;;;;5.50;94.40;;;;;;2091967;28;19912;-93
2022/04/08 01:51:41;;;;;;;;;;;5.50;94.40;;;;;;2098255;28;19916;-92
2022/04/08 01:53:00;;;;;;;;;;;5.40;94.40;;;;;;2105619;28;19920;-92
2022/04/08 01:54:20;;;;;;;;;;;5.40;94.40;;;;;;2095752;28;19917;-92
2022/04/08 01:55:39;;;;;;;;;;;5.40;94.40;;;;;;2085905;28;20351;-92
2022/04/08 01:56:58;;;;;;;;;;;5.40;94.50;;;;;;2094519;28;19971;-91
2022/04/08 01:58:17;;;;;;;;;;;5.40;94.50;;;;;;2097380;28;19921;-92
2022/04/08 01:59:36;;;;;;;;;;;5.40;94.40;;;;;;2091426;28;19920;-92
2022/04/08 02:00:56;;;;;;;;;;;5.30;94.40;;;;;;2082813;28;19913;-91
2022/04/08 02:02:16;;;;;;;;;;;5.30;94.50;;;;;;2092941;28;20418;-92
2022/04/08 02:03:35;;;;;;;;;;;5.30;94.50;;;;;;2093228;28;19920;-91
2022/04/08 02:04:54;;;;;;;;;;;5.30;94.50;;;;;;2087966;28;19967;-91
2022/04/08 02:06:13;;;;;;;;;;;5.30;94.50;;;;;;2092545;28;19913;-91
2022/04/08 02:07:33;;;;;;;;;;;5.20;94.50;;;;;;2103208;28;19916;-91
2022/04/08 02:08:53;;;;;;;;;;;5.20;94.50;;;;;;2091292;28;20282;-92
2022/04/08 02:10:12;;;;;;;;;;;5.20;94.40;;;;;;2091441;28;19971;-92
2022/04/08 02:11:32;;;;;;;;;;;5.20;94.50;;;;;;2082807;28;19917;-92
2022/04/08 02:12:51;;;;;;;;;;;5.20;94.50;;;;;;2084700;28;19913;-92
2022/04/08 02:14:10;;;;;;;;;;;5.20;94.50;;;;;;2094069;28;19916;-92
2022/04/08 02:15:33;;;;;;;;;;;5.20;94.50;;;;;;2091696;28;20348;-92
2022/04/08 02:16:52;;;;;;;;;;;5.20;94.50;;;;;;2092051;28;19916;-92
2022/04/08 02:18:12;;;;;;;;;;;5.20;94.50;;;;;;2091169;28;19982;-91
2022/04/08 02:19:32;;;;;;;;;;;5.10;94.50;;;;;;2089813;28;20291;-92
2022/04/08 02:20:51;;;;;;;;;;;5.10;94.50;;;;;;2096289;28;19912;-91
2022/04/08 02:22:11;;;;;;;;;;;5.10;94.50;;;;;;2099779;28;19912;-92
2022/04/08 02:23:31;;;;;;;;;;;5.20;94.50;;;;;;2107301;28;20014;-92
2022/04/08 02:24:50;;;;;;;;;;;5.10;94.50;;;;;;2094007;28;19960;-92
2022/04/08 02:26:12;;;;;;;;;;;5.10;94.50;;;;;;2091461;28;19917;-91
2022/04/08 02:27:32;;;;;;;;;;;5.10;94.50;;;;;;2096845;28;19987;-92
2022/04/08 02:28:51;;;;;;;;;;;5.10;94.50;;;;;;2098997;28;19917;-91
2022/04/08 02:30:12;;;;;;;;;;;5.10;94.50;;;;;;2090994;28;19917;-92
2022/04/08 02:31:31;;;;;;;;;;;5.10;94.50;;;;;;2093086;28;20007;-92
2022/04/08 02:32:50;;;;;;;;;;;5.00;94.50;;;;;;2088945;28;19913;-92
2022/04/08 02:34:10;;;;;;;;;;;5.00;94.50;;;;;;2098468;28;19920;-91
2022/04/08 02:35:30;;;;;;;;;;;5.00;94.50;;;;;;2097126;28;19917;-92
2022/04/08 02:36:50;;;;;;;;;;;5.00;94.50;;;;;;2097140;28;19917;-92
2022/04/08 02:38:09;;;;;;;;;;;5.00;94.50;;;;;;2092659;28;19913;-92
2022/04/08 02:39:29;;;;;;;;;;;5.00;94.50;;;;;;2101826;28;19987;-91
2022/04/08 02:40:48;;;;;;;;;;;5.00;94.50;;;;;;2100825;28;19909;-91
2022/04/08 02:42:07;;;;;;;;;;;5.00;94.60;;;;;;2091981;28;19912;-91
2022/04/08 02:43:26;;;;;;;;;;;5.00;94.50;;;;;;2092680;28;20442;-91
2022/04/08 02:44:46;;;;;;;;;;;5.00;94.50;;;;;;2085702;28;19917;-92
2022/04/08 02:46:05;;;;;;;;;;;5.00;94.50;;;;;;2095468;28;19920;-91
2022/04/08 02:47:24;;;;;;;;;;;5.00;94.50;;;;;;2093851;28;19917;-91
2022/04/08 02:48:44;;;;;;;;;;;5.00;94.50;;;;;;2100900;28;19917;-91
2022/04/08 02:50:03;;;;;;;;;;;5.00;94.50;;;;;;2099819;28;19909;-91
2022/04/08 02:51:22;;;;;;;;;;;4.90;94.50;;;;;;2107522;28;19916;-91
2022/04/08 02:52:41;;;;;;;;;;;4.90;94.50;;;;;;2099134;28;19913;-92
2022/04/08 02:54:00;;;;;;;;;;;4.90;94.50;;;;;;2087520;28;19916;-92
2022/04/08 02:55:20;;;;;;;;;;;4.90;94.50;;;;;;2089336;28;20466;-92
2022/04/08 02:56:41;;;;;;;;;;;4.90;94.50;;;;;;2090579;28;19917;-91
2022/04/08 02:58:00;;;;;;;;;;;4.90;94.60;;;;;;2090875;28;20387;-92
2022/04/08 02:59:19;;;;;;;;;;;4.90;94.60;;;;;;2090988;28;19921;-92
2022/04/08 03:00:39;;;;;;;;;;;4.90;94.60;;;;;;2091315;28;20007;-91
2022/04/08 03:01:59;;;;;;;;;;;4.90;94.60;;;;;;2096075;28;19916;-91
2022/04/08 03:03:18;;;;;;;;;;;4.90;94.60;;;;;;2097396;28;19921;-91
2022/04/08 03:04:38;;;;;;;;;;;4.90;94.60;;;;;;2087466;28;19920;-92
2022/04/08 03:05:58;;;;;;;;;;;4.80;94.60;;;;;;2093054;28;19917;-91
2022/04/08 03:07:17;;;;;;;;;;;4.90;94.60;;;;;;2087523;28;20390;-92
2022/04/08 03:08:36;;;;;;;;;;;4.90;94.60;;;;;;2079162;28;19913;-92
2022/04/08 03:09:55;;;;;;;;;;;4.90;94.60;;;;;;2086374;28;19920;-92
2022/04/08 03:11:14;;;;;;;;;;;4.90;94.60;;;;;;2091624;28;19937;-91
2022/04/08 03:12:34;;;;;;;;;;;4.90;94.50;;;;;;2089853;28;19992;-90
2022/04/08 03:13:52;;;;;;;;;;;4.90;94.50;;;;;;2082281;28;19917;-91
2022/04/08 03:15:12;;;;;;;;;;;4.90;94.50;;;;;;2083985;28;19917;-91
2022/04/08 03:16:31;;;;;;;;;;;4.90;94.50;;;;;;2091863;28;19955;-91
2022/04/08 03:17:51;;;;;;;;;;;4.90;94.50;;;;;;2092368;28;20013;-91
2022/04/08 03:19:10;;;;;;;;;;;4.90;94.40;;;;;;2088640;28;19916;-92
2022/04/08 03:20:30;;;;;;;;;;;4.90;94.40;;;;;;2091136;28;19912;-91
2022/04/08 03:21:49;;;;;;;;;;;5.00;94.40;;;;;;2084118;28;19924;-92
2022/04/08 03:23:08;;;;;;;;;;;5.00;94.40;;;;;;2080103;28;20362;-92
2022/04/08 03:24:28;;;;;;;;;;;5.00;94.40;;;;;;2090641;28;19916;-91
2022/04/08 03:25:47;;;;;;;;;;;5.00;94.40;;;;;;2087441;28;19913;-91
2022/04/08 03:27:06;;;;;;;;;;;5.00;94.30;;;;;;2090612;28;20351;-92
2022/04/08 03:28:25;;;;;;;;;;;5.10;94.30;;;;;;2091206;28;19921;-92
2022/04/08 03:29:44;;;;;;;;;;;5.00;94.30;;;;;;2090540;28;20403;-91
2022/04/08 03:31:04;;;;;;;;;;;5.00;94.30;;;;;;2092978;28;20361;-92
2022/04/08 03:32:23;;;;;;;;;;;5.10;94.30;;;;;;2099067;28;19924;-91
2022/04/08 03:33:42;;;;;;;;;;;5.00;94.20;;;;;;2096765;28;19925;-91
2022/04/08 03:35:02;;;;;;;;;;;5.00;94.20;;;;;;2090333;28;19921;-91
2022/04/08 03:36:22;;;;;;;;;;;5.00;94.20;;;;;;2096332;28;19916;-91
2022/04/08 03:37:40;;;;;;;;;;;5.10;94.20;;;;;;2090553;28;20307;-91
2022/04/08 03:39:00;;;;;;;;;;;5.10;94.20;;;;;;2083973;28;19917;-92
2022/04/08 03:40:19;;;;;;;;;;;5.10;94.20;;;;;;2091055;28;19921;-91
2022/04/08 03:41:38;;;;;;;;;;;5.10;94.20;;;;;;2089974;28;19917;-91
2022/04/08 03:42:57;;;;;;;;;;;5.00;94.20;;;;;;2090981;28;20086;-92
2022/04/08 03:44:17;;;;;;;;;;;5.10;94.20;;;;;;2091706;28;20007;-91
2022/04/08 03:45:36;;;;;;;;;;;5.10;94.20;;;;;;2092728;28;19944;-91
2022/04/08 03:46:55;;;;;;;;;;;5.10;94.20;;;;;;2107048;28;19962;-91
2022/04/08 03:48:14;;;;;;;;;;;5.00;94.20;;;;;;2097045;28;20338;-91
2022/04/08 03:49:36;;;;;;;;;;;5.00;94.20;;;;;;2086699;28;19917;-91
2022/04/08 03:50:55;;;;;;;;;;;5.00;94.20;;;;;;2090745;28;19960;-92
2022/04/08 03:52:14;;;;;;;;;;;5.00;94.30;;;;;;2091880;28;19913;-91
2022/04/08 03:53:33;;;;;;;;;;;5.00;94.30;;;;;;2090786;28;19917;-91
2022/04/08 03:54:55;;;;;;;;;;;4.90;94.20;;;;;;2085189;28;19917;-91
2022/04/08 03:56:16;;;;;;;;;;;4.90;94.30;;;;;;2082137;28;19921;-91
2022/04/08 03:57:35;;;;;;;;;;;4.90;94.30;;;;;;2088050;28;20306;-92
2022/04/08 03:58:54;;;;;;;;;;;4.90;94.30;;;;;;2093868;28;19917;-91
2022/04/08 04:00:13;;;;;;;;;;;4.90;94.60;;;;;;2090360;28;20352;-92
2022/04/08 04:01:32;;;;;;;;;;;4.80;94.30;;;;;;2090796;28;19917;-92
2022/04/08 04:02:52;;;;;;;;;;;4.80;94.40;;;;;;2090752;28;19921;-92
2022/04/08 04:04:11;;;;;;;;;;;4.80;94.40;;;;;;2098903;28;19916;-91
2022/04/08 04:05:31;;;;;;;;;;;4.80;94.40;;;;;;2099666;28;20370;-91
2022/04/08 04:06:51;;;;;;;;;;;4.70;94.40;;;;;;2095298;28;19917;-91
2022/04/08 04:08:15;;;;;;;;;;;4.70;94.40;;;;;;2096782;28;19952;-91
2022/04/08 04:09:34;;;;;;;;;;;4.70;94.40;;;;;;2092343;28;19916;-92
2022/04/08 04:10:53;;;;;;;;;;;4.70;94.40;;;;;;2099280;28;19912;-91
2022/04/08 04:12:12;;;;;;;;;;;4.70;94.40;;;;;;2089709;28;20291;-91
2022/04/08 04:13:32;;;;;;;;;;;4.70;94.50;;;;;;2088725;28;19913;-92
2022/04/08 04:14:51;;;;;;;;;;;4.70;94.50;;;;;;2090661;28;19913;-91
2022/04/08 04:16:10;;;;;;;;;;;4.60;94.50;;;;;;2094708;28;20278;-91
2022/04/08 04:17:29;;;;;;;;;;;4.60;94.50;;;;;;2093854;28;20351;-91
2022/04/08 04:18:49;;;;;;;;;;;4.60;94.50;;;;;;2099177;28;19916;-91
2022/04/08 04:20:08;;;;;;;;;;;4.60;94.50;;;;;;2093425;28;19925;-92
2022/04/08 04:21:28;;;;;;;;;;;4.50;94.50;;;;;;2090764;28;19944;-92
2022/04/08 04:22:47;;;;;;;;;;;4.50;94.50;;;;;;2091237;28;19960;-92
2022/04/08 04:24:06;;;;;;;;;;;4.50;94.60;;;;;;2095201;28;19924;-92
2022/04/08 04:25:26;;;;;;;;;;;4.50;94.50;;;;;;2094901;28;19913;-91
2022/04/08 04:26:45;;;;;;;;;;;4.50;94.60;;;;;;2097770;28;19916;-91
2022/04/08 04:28:04;;;;;;;;;;;4.50;94.60;;;;;;2096839;28;19921;-91
2022/04/08 04:29:23;;;;;;;;;;;4.50;94.60;;;;;;2093587;28;19963;-92
2022/04/08 04:30:43;;;;;;;;;;;4.40;94.60;;;;;;2095665;28;20270;-91
2022/04/08 04:32:03;;;;;;;;;;;4.40;94.60;;;;;;2098384;28;19913;-91
2022/04/08 04:33:22;;;;;;;;;;;4.40;94.60;;;;;;2097876;28;19917;-91
2022/04/08 04:34:41;;;;;;;;;;;4.40;94.60;;;;;;2089454;28;19960;-92
2022/04/08 04:36:01;;;;;;;;;;;4.40;94.60;;;;;;2093868;28;19913;-91
2022/04/08 04:37:20;;;;;;;;;;;4.40;94.60;;;;;;2090663;28;19916;-90
2022/04/08 04:38:39;;;;;;;;;;;4.40;94.60;;;;;;2086220;28;19917;-91
2022/04/08 04:39:59;;;;;;;;;;;4.30;94.60;;;;;;2077265;28;19951;-91
2022/04/08 04:41:18;;;;;;;;;;;4.30;94.60;;;;;;2088269;28;20007;-91
2022/04/08 04:42:37;;;;;;;;;;;4.30;94.60;;;;;;2092021;28;19917;-90
2022/04/08 04:43:56;;;;;;;;;;;4.30;94.60;;;;;;2097620;28;19916;-93
2022/04/08 04:45:16;;;;;;;;;;;4.30;94.60;;;;;;2083876;28;20402;-92
2022/04/08 04:46:35;;;;;;;;;;;4.20;94.60;;;;;;2087363;28;20462;-90
2022/04/08 04:47:54;;;;;;;;;;;4.20;94.70;;;;;;2084518;28;20355;-91
2022/04/08 04:49:13;;;;;;;;;;;4.20;94.70;;;;;;2095139;28;19920;-91
2022/04/08 04:50:33;;;;;;;;;;;4.20;94.70;;;;;;2080252;28;20353;-90
2022/04/08 04:51:52;;;;;;;;;;;4.20;94.70;;;;;;2093321;28;19976;-91
2022/04/08 04:53:11;;;;;;;;;;;4.20;94.70;;;;;;2095364;28;19917;-92
2022/04/08 04:54:30;;;;;;;;;;;4.20;94.70;;;;;;2088030;28;19917;-92
2022/04/08 04:55:50;;;;;;;;;;;4.20;94.70;;;;;;2093051;28;19980;-92
2022/04/08 04:57:09;;;;;;;;;;;4.20;94.70;;;;;;2093506;28;19925;-92
2022/04/08 04:58:29;;;;;;;;;;;4.20;94.70;;;;;;2099485;28;19917;-93
2022/04/08 04:59:48;;;;;;;;;;;4.20;94.70;;;;;;2090220;28;20428;-91
2022/04/08 05:01:07;;;;;;;;;;;4.20;94.70;;;;;;2091175;28;19912;-90
2022/04/08 05:02:26;;;;;;;;;;;4.20;94.70;;;;;;2100091;28;20328;-91
2022/04/08 05:03:45;;;;;;;;;;;4.10;94.70;;;;;;2099601;28;20011;-90
2022/04/08 05:05:06;;;;;;;;;;;4.10;94.70;;;;;;2095218;28;19946;-91
2022/04/08 05:06:25;;;;;;;;;;;4.10;94.70;;;;;;2096421;28;20003;-82
2022/04/08 05:07:44;;;;;;;;;;;4.10;94.70;;;;;;2095475;28;19913;-91
2022/04/08 05:09:04;;;;;;;;;;;4.10;94.70;;;;;;2094344;28;20007;-91
2022/04/08 05:10:23;;;;;;;;;;;4.10;94.70;;;;;;2100177;28;19912;-91
2022/04/08 05:11:43;;;;;;;;;;;4.10;94.70;;;;;;2099797;28;19912;-92
2022/04/08 05:13:02;;;;;;;;;;;4.00;94.70;;;;;;2100176;28;20007;-92
2022/04/08 05:14:22;;;;;;;;;;;4.10;94.70;;;;;;2108767;28;19916;-90
2022/04/08 05:15:42;;;;;;;;;;;4.10;94.70;;;;;;2101269;28;19939;-92
2022/04/08 05:17:02;;;;;;;;;;;4.10;94.70;;;;;;2080282;28;19913;-91
2022/04/08 05:18:20;;;;;;;;;;;4.10;94.70;;;;;;2093086;28;20350;-92
2022/04/08 05:19:39;;;;;;;;;;;4.00;94.70;;;;;;2087570;28;19917;-92
2022/04/08 05:20:59;;;;;;;;;;;4.00;94.70;;;;;;2088633;28;19912;-91
2022/04/08 05:22:18;;;;;;;;;;;4.10;94.70;;;;;;2091522;28;19917;-91
2022/04/08 05:23:37;;;;;;;;;;;4.00;94.70;;;;;;2087855;28;19924;-91
2022/04/08 05:24:58;;;;;;;;;;;4.00;94.70;;;;;;2098180;28;19921;-89
2022/04/08 05:26:17;;;;;;;;;;;4.00;94.70;;;;;;2098962;28;19921;-91
2022/04/08 05:27:37;;;;;;;;;;;4.00;94.70;;;;;;2091369;28;20000;-93
2022/04/08 05:28:57;;;;;;;;;;;4.00;94.70;;;;;;2088305;28;19917;-91
2022/04/08 05:30:17;;;;;;;;;;;4.00;94.70;;;;;;2088082;28;19913;-93
2022/04/08 05:31:36;;;;;;;;;;;4.10;94.70;;;;;;2091717;28;20401;-92
2022/04/08 05:32:56;;;;;;;;;;;4.10;94.70;;;;;;2091920;28;19913;-92
2022/04/08 05:34:15;;;;;;;;;;;4.10;94.70;;;;;;2091471;28;19921;-91
2022/04/08 05:35:34;;;;;;;;;;;4.10;94.70;;;;;;2101688;28;19913;-91
2022/04/08 05:36:53;;;;;;;;;;;4.10;94.70;;;;;;2091701;28;19913;-91
2022/04/08 05:38:12;;;;;;;;;;;4.10;94.60;;;;;;2100256;28;19912;-91
2022/04/08 05:39:32;;;;;;;;;;;4.20;94.70;;;;;;2098868;28;19933;-91
2022/04/08 05:40:51;;;;;;;;;;;4.20;94.60;;;;;;2096724;28;20465;-91
2022/04/08 05:42:10;;;;;;;;;;;4.20;94.60;;;;;;2093085;28;19913;-92
2022/04/08 05:43:29;;;;;;;;;;;4.20;94.60;;;;;;2087866;28;19917;-92
2022/04/08 05:44:49;;;;;;;;;;;4.20;94.60;;;;;;2091360;28;19917;-91
2022/04/08 05:46:08;;;;;;;;;;;4.20;94.50;;;;;;2091740;28;19916;-91
2022/04/08 05:47:28;;;;;;;;;;;4.30;94.50;;;;;;2091218;28;20003;-92
2022/04/08 05:48:47;;;;;;;;;;;4.30;94.50;;;;;;2091428;28;20347;-91
2022/04/08 05:50:06;;;;;;;;;;;4.30;94.50;;;;;;2091722;28;19917;-91
2022/04/08 05:51:25;;;;;;;;;;;4.30;94.50;;;;;;2092111;28;19917;-91
2022/04/08 05:52:47;;;;;;;;;;;4.30;94.40;;;;;;2100245;28;19912;-91
2022/04/08 05:54:06;;;;;;;;;;;4.30;94.40;;;;;;2106041;28;19918;-91
2022/04/08 05:55:25;;;;;;;;;;;4.40;94.50;;;;;;2096650;28;19917;-92
2022/04/08 05:56:44;;;;;;;;;;;4.40;94.50;;;;;;2091942;28;20062;-92
2022/04/08 05:58:04;;;;;;;;;;;4.40;94.40;;;;;;2089021;28;19913;-91
2022/04/08 05:59:23;;;;;;;;;;;4.50;94.40;;;;;;2093967;28;19991;-93
2022/04/08 06:00:42;;;;;;;;;;;4.50;94.40;;;;;;2085367;28;20403;-92
2022/04/08 06:02:01;;;;;;;;;;;4.50;94.40;;;;;;2090579;28;19913;-92
2022/04/08 06:03:21;;;;;;;;;;;4.50;94.40;;;;;;2091282;28;19996;-91
2022/04/08 06:04:40;;;;;;;;;;;4.60;94.30;;;;;;2092204;28;20386;-92
2022/04/08 06:05:59;;;;;;;;;;;4.60;94.30;;;;;;2091877;28;19913;-92
2022/04/08 06:07:18;;;;;;;;;;;4.70;94.30;;;;;;2096001;28;20445;-92
2022/04/08 06:08:37;;;;;;;;;;;4.70;94.20;;;;;;2093060;28;19917;-92
2022/04/08 06:09:59;;;;;;;;;;;4.70;94.20;;;;;;2093094;28;19916;-92
2022/04/08 06:11:18;;;;;;;;;;;4.80;94.20;;;;;;2094422;28;20007;-93
2022/04/08 06:12:37;;;;;;;;;;;4.80;94.20;;;;;;2083316;28;19917;-92
2022/04/08 06:13:57;;;;;;;;;;;4.80;94.20;;;;;;2092645;28;20378;-91
2022/04/08 06:15:16;;;;;;;;;;;4.80;94.10;;;;;;2093689;28;19909;-92
2022/04/08 06:16:36;;;;;;;;;;;4.80;94.10;;;;;;2096427;28;19912;-91
2022/04/08 06:17:55;;;;;;;;;;;4.90;94.10;;;;;;2098164;28;19921;-92
2022/04/08 06:19:14;;;;;;;;;;;4.90;94.10;;;;;;2090709;28;19917;-93
2022/04/08 06:20:33;;;;;;;;;;;4.90;94.10;;;;;;2094501;28;20275;-91
2022/04/08 06:21:54;;;;;;;;;;;5.00;94.10;;;;;;2108370;28;19948;-92
2022/04/08 06:23:14;;;;;;;;;;;5.00;94.10;;;;;;2098123;28;19909;-92
2022/04/08 06:24:33;;;;;;;;;;;5.00;94.10;;;;;;2088304;28;19912;-92
2022/04/08 06:25:52;;;;;;;;;;;5.00;94.00;;;;;;2101138;28;19901;-92
2022/04/08 06:27:12;;;;;;;;;;;5.00;94.00;;;;;;2103350;28;19944;-92
2022/04/08 06:28:31;;;;;;;;;;;5.10;94.00;;;;;;2094098;28;20367;-92
2022/04/08 06:29:50;;;;;;;;;;;5.10;94.00;;;;;;2092238;28;19909;-92
2022/04/08 06:31:10;;;;;;;;;;;5.10;94.00;;;;;;2098873;28;19917;-92
2022/04/08 06:32:29;;;;;;;;;;;5.10;94.00;;;;;;2095331;28;19952;-91
2022/04/08 06:33:48;;;;;;;;;;;5.20;94.00;;;;;;2093577;28;19932;-92
2022/04/08 06:35:08;;;;;;;;;;;5.20;93.90;;;;;;2100542;28;19912;-89
2022/04/08 06:36:27;;;;;;;;;;;5.20;93.90;;;;;;2101635;28;19913;-92
2022/04/08 06:37:47;;;;;;;;;;;5.20;93.90;;;;;;2102254;28;19999;-92
2022/04/08 06:39:06;;;;;;;;;;;5.30;93.90;;;;;;2098969;28;19913;-92
2022/04/08 06:40:25;;;;;;;;;;;5.30;93.90;;;;;;2092779;28;19928;-93
2022/04/08 06:41:44;;;;;;;;;;;5.40;93.90;;;;;;2088145;28;19979;-92
2022/04/08 06:43:05;;;;;;;;;;;5.40;93.90;;;;;;2080798;28;20352;-92
2022/04/08 06:44:24;;;;;;;;;;;5.40;93.90;;;;;;2092435;28;20371;-92
2022/04/08 06:45:43;;;;;;;;;;;5.40;93.80;;;;;;2091282;28;19984;-92
2022/04/08 06:47:02;;;;;;;;;;;5.40;93.80;;;;;;2085870;28;19917;-92
2022/04/08 06:48:21;;;;;;;;;;;5.40;93.80;;;;;;2086250;28;19916;-92
2022/04/08 06:49:44;;;;;;;;;;;5.50;93.90;;;;;;2078767;28;19917;-92
2022/04/08 06:51:06;;;;;;;;;;;5.40;93.80;;;;;;2079624;28;19917;-92
2022/04/08 06:52:25;;;;;;;;;;;5.50;93.80;;;;;;2088817;28;20010;-91
2022/04/08 06:53:45;;;;;;;;;;;5.50;93.80;;;;;;2086478;28;19964;-92
2022/04/08 06:55:04;;;;;;;;;;;5.60;93.80;;;;;;2081457;28;19917;-91
2022/04/08 06:56:23;;;;;;;;;;;5.60;93.80;;;;;;2083906;28;19968;-92
2022/04/08 06:57:43;;;;;;;;;;;5.60;93.80;;;;;;2087339;28;19917;-92
2022/04/08 06:59:02;;;;;;;;;;;5.70;93.80;;;;;;2088478;28;19916;-92
2022/04/08 07:00:21;;;;;;;;;;;5.60;93.70;;;;;;2098982;28;19928;-92
2022/04/08 07:01:41;;;;;;;;;;;5.70;93.70;;;;;;2090043;28;20134;-92
2022/04/08 07:03:00;;;;;;;;;;;5.70;93.70;;;;;;2083828;28;20511;-92
2022/04/08 07:04:19;;;;;;;;;;;5.80;93.70;;;;;;2072533;28;19921;-92
2022/04/08 07:05:39;;;;;;;;;;;5.80;93.70;;;;;;2081493;28;20780;-92
2022/04/08 07:06:58;;;;;;;;;;;5.80;93.70;;;;;;2084391;28;19923;-93
2022/04/08 07:08:17;;;;;;;;;;;5.90;93.70;;;;;;2080396;28;20031;-92
2022/04/08 07:09:37;;;;;;;;;;;5.90;93.70;;;;;;2080068;28;19916;-92
2022/04/08 07:10:57;;;;;;;;;;;5.90;93.60;;;;;;2082292;28;19917;-92
2022/04/08 07:12:16;;;;;;;;;;;6.00;93.90;;;;;;2094302;28;19912;-92
2022/04/08 07:13:38;;;;;;;;;;;6.00;93.60;;;;;;2095699;28;19928;-92
2022/04/08 07:14:57;;;;;;;;;;;6.00;93.60;;;;;;2098709;28;19916;-92
2022/04/08 07:16:16;;;;;;;;;;;6.00;93.50;;;;;;2097777;28;19916;-92
2022/04/08 07:17:36;;;;;;;;;;;6.10;93.50;;;;;;2090579;28;19999;-93
2022/04/08 07:18:55;;;;;;;;;;;6.10;93.50;;;;;;2087901;28;19921;-92
2022/04/08 07:20:15;;;;;;;;;;;6.10;93.50;;;;;;2093113;28;19925;-91
2022/04/08 07:21:34;;;;;;;;;;;6.20;93.50;;;;;;2091370;28;19912;-91
2022/04/08 07:22:54;;;;;;;;;;;6.20;93.40;;;;;;2091098;28;19917;-92
2022/04/08 07:24:13;;;;;;;;;;;6.20;93.40;;;;;;2082235;28;19917;-92
2022/04/08 07:25:33;;;;;;;;;;;6.30;93.40;;;;;;2085369;28;19909;-92
2022/04/08 07:26:54;;;;;;;;;;;6.30;93.40;;;;;;2090191;28;19916;-92
2022/04/08 07:28:13;;;;;;;;;;;6.30;93.40;;;;;;2087474;28;19916;-92
2022/04/08 07:29:32;;;;;;;;;;;6.30;93.30;;;;;;2084714;28;19917;-92
2022/04/08 07:30:51;;;;;;;;;;;6.40;93.30;;;;;;2089214;28;19913;-90
2022/04/08 07:32:11;;;;;;;;;;;6.40;93.30;;;;;;2092482;28;19928;-90
2022/04/08 07:33:30;;;;;;;;;;;6.40;93.30;;;;;;2093737;28;19924;-91
2022/04/08 07:34:50;;;;;;;;;;;6.50;93.30;;;;;;2092502;28;19913;-90
2022/04/08 07:36:11;;;;;;;;;;;6.50;93.30;;;;;;2099170;28;19912;-92
2022/04/08 07:37:31;;;;;;;;;;;6.50;93.30;;;;;;2098326;28;19917;-91
2022/04/08 07:38:50;;;;;;;;;;;6.50;93.20;;;;;;2087317;28;19913;-89
2022/04/08 07:40:10;;;;;;;;;;;6.60;93.20;;;;;;2086925;28;20411;-90
2022/04/08 07:41:30;;;;;;;;;;;6.60;93.20;;;;;;2092306;28;19975;-90
2022/04/08 07:42:49;;;;;;;;;;;6.60;93.20;;;;;;2086077;28;20306;-90
2022/04/08 07:44:08;;;;;;;;;;;6.70;93.20;;;;;;2091975;28;20043;-91
2022/04/08 07:45:29;;;;;;;;;;;6.70;93.20;;;;;;2087238;28;19917;-90
2022/04/08 07:46:48;;;;;;;;;;;6.70;93.20;;;;;;2087811;28;19921;-90
2022/04/08 07:48:07;;;;;;;;;;;6.80;93.20;;;;;;2092577;28;19917;-89
2022/04/08 07:49:27;;;;;;;;;;;6.80;93.10;;;;;;2096805;28;19917;-90